sensor_id;sensor_type;location;lat;lon;timestamp;pressure;altitude;pressure_sealevel;temperature;humidity
74659;BME280;63186;51.204;6.536;2023-06-14T00:01:32;100867.78;;;14.96;58.13
74659;BME280;63186;51.204;6.536;2023-06-14T00:04:00;100869.28;;;14.93;58.24
74659;BME280;63186;51.204;6.536;2023-06-14T00:06:26;100871.44;;;14.88;58.14
74659;BME280;63186;51.204;6.536;2023-06-14T00:08:52;100871.47;;;14.79;58.58
74659;BME280;63186;51.204;6.536;2023-06-14T00:11:17;100880.66;;;14.71;58.86
74659;BME280;63186;51.204;6.536;2023-06-14T00:13:42;100870.09;;;14.64;59.11
74659;BME280;63186;51.204;6.536;2023-06-14T00:16:08;100872.88;;;14.64;59.34
74659;BME280;63186;51.204;6.536;2023-06-14T00:18:33;100885.44;;;14.62;59.22
74659;BME280;63186;51.204;6.536;2023-06-14T00:20:59;100875.03;;;14.59;59.60
74659;BME280;63186;51.204;6.536;2023-06-14T00:23:25;100880.56;;;14.59;59.47
74659;BME280;63186;51.204;6.536;2023-06-14T00:25:53;100879.91;;;14.62;59.27
74659;BME280;63186;51.204;6.536;2023-06-14T00:28:18;100892.16;;;14.82;58.53
74659;BME280;63186;51.204;6.536;2023-06-14T00:30:44;100883.13;;;14.93;57.82
74659;BME280;63186;51.204;6.536;2023-06-14T00:33:11;100892.06;;;15.20;57.15
74659;BME280;63186;51.204;6.536;2023-06-14T00:35:36;100890.22;;;15.57;55.54
74659;BME280;63186;51.204;6.536;2023-06-14T00:38:02;100890.47;;;15.85;54.72
74659;BME280;63186;51.204;6.536;2023-06-14T00:40:27;100891.88;;;16.04;54.27
74659;BME280;63186;51.204;6.536;2023-06-14T00:42:52;100893.28;;;16.10;53.64
74659;BME280;63186;51.204;6.536;2023-06-14T00:45:18;100893.41;;;16.13;53.55
74659;BME280;63186;51.204;6.536;2023-06-14T00:47:45;100895.97;;;16.18;53.38
74659;BME280;63186;51.204;6.536;2023-06-14T00:50:11;100895.41;;;16.37;52.68
74659;BME280;63186;51.204;6.536;2023-06-14T00:52:37;100892.72;;;16.28;53.11
74659;BME280;63186;51.204;6.536;2023-06-14T00:55:02;100893.09;;;16.27;52.77
74659;BME280;63186;51.204;6.536;2023-06-14T00:57:28;100899.56;;;16.31;52.85
74659;BME280;63186;51.204;6.536;2023-06-14T00:59:55;100895.28;;;16.21;53.22
74659;BME280;63186;51.204;6.536;2023-06-14T01:02:20;100906.13;;;16.02;53.88
74659;BME280;63186;51.204;6.536;2023-06-14T01:04:47;100901.81;;;15.59;55.14
74659;BME280;63186;51.204;6.536;2023-06-14T01:07:54;100909.97;;;15.02;59.43
74659;BME280;63186;51.204;6.536;2023-06-14T01:10:26;100900.41;;;14.70;58.52
74659;BME280;63186;51.204;6.536;2023-06-14T01:13:11;100893.34;;;14.43;61.19
74659;BME280;63186;51.204;6.536;2023-06-14T01:15:38;100901.59;;;14.22;60.66
74659;BME280;63186;51.204;6.536;2023-06-14T01:18:04;100900.63;;;14.18;60.54
74659;BME280;63186;51.204;6.536;2023-06-14T01:20:32;100893.97;;;14.10;60.90
74659;BME280;63186;51.204;6.536;2023-06-14T01:22:57;100893.59;;;14.20;60.93
74659;BME280;63186;51.204;6.536;2023-06-14T01:25:23;100897.16;;;14.29;60.35
74659;BME280;63186;51.204;6.536;2023-06-14T01:27:49;100898.31;;;14.28;60.42
74659;BME280;63186;51.204;6.536;2023-06-14T01:30:16;100896.13;;;14.34;60.05
74659;BME280;63186;51.204;6.536;2023-06-14T01:32:42;100892.44;;;14.21;60.32
74659;BME280;63186;51.204;6.536;2023-06-14T01:35:08;100898.06;;;14.04;61.15
74659;BME280;63186;51.204;6.536;2023-06-14T01:37:34;100898.88;;;14.04;61.54
74659;BME280;63186;51.204;6.536;2023-06-14T01:40:01;100903.91;;;14.11;61.01
74659;BME280;63186;51.204;6.536;2023-06-14T01:42:29;100905.03;;;14.10;61.07
74659;BME280;63186;51.204;6.536;2023-06-14T01:44:55;100906.41;;;14.33;59.87
74659;BME280;63186;51.204;6.536;2023-06-14T01:47:21;100907.50;;;14.50;59.20
74659;BME280;63186;51.204;6.536;2023-06-14T01:49:46;100906.19;;;14.56;58.77
74659;BME280;63186;51.204;6.536;2023-06-14T01:52:12;100902.19;;;14.65;58.43
74659;BME280;63186;51.204;6.536;2023-06-14T01:54:38;100909.41;;;14.87;58.35
74659;BME280;63186;51.204;6.536;2023-06-14T01:57:08;100904.75;;;15.21;56.62
74659;BME280;63186;51.204;6.536;2023-06-14T01:59:33;100908.78;;;15.44;56.33
74659;BME280;63186;51.204;6.536;2023-06-14T02:02:00;100900.41;;;15.53;55.93
74659;BME280;63186;51.204;6.536;2023-06-14T02:04:25;100909.41;;;15.50;56.28
74659;BME280;63186;51.204;6.536;2023-06-14T02:06:50;100902.22;;;15.49;55.62
74659;BME280;63186;51.204;6.536;2023-06-14T02:09:15;100906.16;;;15.48;55.83
74659;BME280;63186;51.204;6.536;2023-06-14T02:11:41;100898.31;;;15.50;55.88
74659;BME280;63186;51.204;6.536;2023-06-14T02:14:06;100909.28;;;15.46;56.32
74659;BME280;63186;51.204;6.536;2023-06-14T02:16:32;100904.75;;;15.42;56.10
74659;BME280;63186;51.204;6.536;2023-06-14T02:18:57;100901.44;;;15.28;56.45
74659;BME280;63186;51.204;6.536;2023-06-14T02:21:23;100903.72;;;15.05;56.96
74659;BME280;63186;51.204;6.536;2023-06-14T02:23:48;100914.28;;;14.90;57.43
74659;BME280;63186;51.204;6.536;2023-06-14T02:26:13;100909.06;;;14.68;57.99
74659;BME280;63186;51.204;6.536;2023-06-14T02:28:38;100906.19;;;14.56;58.56
74659;BME280;63186;51.204;6.536;2023-06-14T02:31:04;100905.94;;;14.70;58.30
74659;BME280;63186;51.204;6.536;2023-06-14T02:33:29;100919.78;;;14.70;58.04
74659;BME280;63186;51.204;6.536;2023-06-14T02:35:54;100920.13;;;14.68;58.48
74659;BME280;63186;51.204;6.536;2023-06-14T02:38:21;100911.38;;;14.57;58.72
74659;BME280;63186;51.204;6.536;2023-06-14T02:40:46;100909.97;;;14.43;59.30
74659;BME280;63186;51.204;6.536;2023-06-14T02:43:12;100918.00;;;14.27;59.85
74659;BME280;63186;51.204;6.536;2023-06-14T02:45:37;100914.97;;;14.11;60.49
74659;BME280;63186;51.204;6.536;2023-06-14T02:48:02;100917.13;;;13.97;61.07
74659;BME280;63186;51.204;6.536;2023-06-14T02:50:28;100915.53;;;13.87;61.77
74659;BME280;63186;51.204;6.536;2023-06-14T02:52:55;100918.66;;;13.68;61.93
74659;BME280;63186;51.204;6.536;2023-06-14T02:55:22;100934.63;;;13.54;62.61
74659;BME280;63186;51.204;6.536;2023-06-14T02:57:47;100928.44;;;13.40;63.20
74659;BME280;63186;51.204;6.536;2023-06-14T03:00:13;100937.88;;;13.30;63.67
74659;BME280;63186;51.204;6.536;2023-06-14T03:02:39;100933.47;;;13.20;64.03
74659;BME280;63186;51.204;6.536;2023-06-14T03:05:04;100943.56;;;13.25;63.96
74659;BME280;63186;51.204;6.536;2023-06-14T03:07:31;100937.06;;;13.21;63.70
74659;BME280;63186;51.204;6.536;2023-06-14T03:09:57;100944.84;;;13.19;64.20
74659;BME280;63186;51.204;6.536;2023-06-14T03:12:23;100938.47;;;13.10;64.27
74659;BME280;63186;51.204;6.536;2023-06-14T03:14:48;100947.09;;;12.99;64.51
74659;BME280;63186;51.204;6.536;2023-06-14T03:17:15;100947.06;;;12.91;65.13
74659;BME280;63186;51.204;6.536;2023-06-14T03:19:42;100948.72;;;13.09;64.66
74659;BME280;63186;51.204;6.536;2023-06-14T03:22:07;100956.72;;;13.19;64.16
74659;BME280;63186;51.204;6.536;2023-06-14T03:24:33;100956.19;;;13.09;64.69
74659;BME280;63186;51.204;6.536;2023-06-14T03:27:01;100961.25;;;13.07;64.78
74659;BME280;63186;51.204;6.536;2023-06-14T03:29:27;100965.19;;;13.23;64.30
74659;BME280;63186;51.204;6.536;2023-06-14T03:32:00;100961.44;;;13.19;65.14
74659;BME280;63186;51.204;6.536;2023-06-14T03:34:26;100956.38;;;13.12;64.52
74659;BME280;63186;51.204;6.536;2023-06-14T03:36:51;100971.66;;;13.18;65.09
74659;BME280;63186;51.204;6.536;2023-06-14T03:39:17;100967.34;;;13.43;64.70
74659;BME280;63186;51.204;6.536;2023-06-14T03:41:42;100964.38;;;13.66;63.90
74659;BME280;63186;51.204;6.536;2023-06-14T03:44:07;100976.22;;;14.01;63.07
74659;BME280;63186;51.204;6.536;2023-06-14T03:46:32;100967.41;;;14.07;63.16
74659;BME280;63186;51.204;6.536;2023-06-14T03:48:58;100973.09;;;14.11;62.27
74659;BME280;63186;51.204;6.536;2023-06-14T03:51:23;100975.19;;;14.14;62.66
74659;BME280;63186;51.204;6.536;2023-06-14T03:53:50;100975.69;;;14.25;62.27
74659;BME280;63186;51.204;6.536;2023-06-14T03:56:15;100974.53;;;14.26;61.60
74659;BME280;63186;51.204;6.536;2023-06-14T03:58:41;100972.56;;;14.35;61.35
74659;BME280;63186;51.204;6.536;2023-06-14T04:01:06;100972.03;;;14.42;61.17
74659;BME280;63186;51.204;6.536;2023-06-14T04:03:32;100976.91;;;14.53;60.96
74659;BME280;63186;51.204;6.536;2023-06-14T04:05:58;100982.19;;;15.05;59.79
74659;BME280;63186;51.204;6.536;2023-06-14T04:08:25;100971.84;;;15.77;57.44
74659;BME280;63186;51.204;6.536;2023-06-14T04:10:50;100984.56;;;16.44;56.06
74659;BME280;63186;51.204;6.536;2023-06-14T04:13:15;100979.03;;;16.93;54.65
74659;BME280;63186;51.204;6.536;2023-06-14T04:15:40;100990.22;;;17.33;53.82
74659;BME280;63186;51.204;6.536;2023-06-14T04:18:07;100989.00;;;17.71;53.11
74659;BME280;63186;51.204;6.536;2023-06-14T04:20:33;100995.03;;;18.01;52.38
74659;BME280;63186;51.204;6.536;2023-06-14T04:23:11;100993.81;;;18.30;52.47
74659;BME280;63186;51.204;6.536;2023-06-14T04:25:37;101000.66;;;18.49;51.58
74659;BME280;63186;51.204;6.536;2023-06-14T04:28:02;100998.00;;;18.52;51.65
74659;BME280;63186;51.204;6.536;2023-06-14T04:30:28;101001.41;;;18.77;50.94
74659;BME280;63186;51.204;6.536;2023-06-14T04:32:56;101000.69;;;18.96;50.67
74659;BME280;63186;51.204;6.536;2023-06-14T04:35:21;101005.28;;;19.04;50.40
74659;BME280;63186;51.204;6.536;2023-06-14T04:37:48;101000.56;;;19.24;49.94
74659;BME280;63186;51.204;6.536;2023-06-14T04:40:14;101003.22;;;19.56;49.76
74659;BME280;63186;51.204;6.536;2023-06-14T04:42:39;101005.63;;;19.92;49.02
74659;BME280;63186;51.204;6.536;2023-06-14T04:45:06;101006.56;;;20.19;48.34
74659;BME280;63186;51.204;6.536;2023-06-14T04:47:32;101007.94;;;20.29;48.08
74659;BME280;63186;51.204;6.536;2023-06-14T04:49:57;101004.81;;;20.34;47.72
74659;BME280;63186;51.204;6.536;2023-06-14T04:52:23;101011.47;;;20.45;48.13
74659;BME280;63186;51.204;6.536;2023-06-14T04:54:51;101015.00;;;20.65;47.69
74659;BME280;63186;51.204;6.536;2023-06-14T04:57:17;101026.69;;;20.71;47.21
74659;BME280;63186;51.204;6.536;2023-06-14T04:59:47;101037.88;;;20.94;46.87
74659;BME280;63186;51.204;6.536;2023-06-14T05:02:12;101034.34;;;20.74;46.80
74659;BME280;63186;51.204;6.536;2023-06-14T05:04:38;101034.88;;;20.60;47.48
74659;BME280;63186;51.204;6.536;2023-06-14T05:07:04;101037.63;;;20.56;46.24
74659;BME280;63186;51.204;6.536;2023-06-14T05:09:31;101045.09;;;20.72;46.44
74659;BME280;63186;51.204;6.536;2023-06-14T05:11:56;101041.22;;;21.03;45.95
74659;BME280;63186;51.204;6.536;2023-06-14T05:14:23;101040.78;;;21.01;45.18
74659;BME280;63186;51.204;6.536;2023-06-14T05:16:48;101048.03;;;21.05;45.51
74659;BME280;63186;51.204;6.536;2023-06-14T05:19:14;101052.00;;;21.01;44.94
74659;BME280;63186;51.204;6.536;2023-06-14T05:21:39;101054.13;;;21.11;44.84
74659;BME280;63186;51.204;6.536;2023-06-14T05:24:05;101049.91;;;21.21;44.71
74659;BME280;63186;51.204;6.536;2023-06-14T05:26:30;101049.22;;;21.27;43.95
74659;BME280;63186;51.204;6.536;2023-06-14T05:28:56;101050.25;;;21.42;44.10
74659;BME280;63186;51.204;6.536;2023-06-14T05:31:25;101049.97;;;21.51;43.80
74659;BME280;63186;51.204;6.536;2023-06-14T05:33:51;101059.97;;;21.78;42.86
74659;BME280;63186;51.204;6.536;2023-06-14T05:36:16;101049.84;;;21.70;43.46
74659;BME280;63186;51.204;6.536;2023-06-14T05:38:41;101060.41;;;21.84;43.03
74659;BME280;63186;51.204;6.536;2023-06-14T05:41:07;101057.25;;;22.15;42.80
74659;BME280;63186;51.204;6.536;2023-06-14T05:43:32;101059.44;;;22.70;41.77
74659;BME280;63186;51.204;6.536;2023-06-14T05:45:57;101066.97;;;23.03;41.16
74659;BME280;63186;51.204;6.536;2023-06-14T05:48:22;101062.47;;;22.91;41.28
74659;BME280;63186;51.204;6.536;2023-06-14T05:50:48;101069.06;;;23.13;41.08
74659;BME280;63186;51.204;6.536;2023-06-14T05:53:13;101069.19;;;23.31;40.68
74659;BME280;63186;51.204;6.536;2023-06-14T05:55:38;101078.72;;;23.16;40.86
74659;BME280;63186;51.204;6.536;2023-06-14T05:58:03;101075.72;;;23.46;40.27
74659;BME280;63186;51.204;6.536;2023-06-14T06:00:29;101078.44;;;23.94;39.44
74659;BME280;63186;51.204;6.536;2023-06-14T06:02:54;101073.03;;;24.47;38.36
74659;BME280;63186;51.204;6.536;2023-06-14T06:05:22;101077.50;;;25.02;37.50
74659;BME280;63186;51.204;6.536;2023-06-14T06:07:48;101083.13;;;25.02;36.60
74659;BME280;63186;51.204;6.536;2023-06-14T06:10:13;101083.53;;;24.72;36.53
74659;BME280;63186;51.204;6.536;2023-06-14T06:12:38;101094.38;;;24.77;37.39
74659;BME280;63186;51.204;6.536;2023-06-14T06:15:04;101086.41;;;25.18;36.46
74659;BME280;63186;51.204;6.536;2023-06-14T06:17:29;101084.34;;;25.51;36.39
74659;BME280;63186;51.204;6.536;2023-06-14T06:19:55;101098.88;;;25.24;35.95
74659;BME280;63186;51.204;6.536;2023-06-14T06:22:20;101089.56;;;24.88;37.13
74659;BME280;63186;51.204;6.536;2023-06-14T06:24:45;101099.91;;;24.38;37.49
74659;BME280;63186;51.204;6.536;2023-06-14T06:27:11;101096.41;;;25.01;36.53
74659;BME280;63186;51.204;6.536;2023-06-14T06:29:37;101100.47;;;25.25;33.03
74659;BME280;63186;51.204;6.536;2023-06-14T06:32:03;101088.41;;;25.32;32.72
74659;BME280;63186;51.204;6.536;2023-06-14T06:34:28;101091.19;;;25.50;34.13
74659;BME280;63186;51.204;6.536;2023-06-14T06:36:54;101093.34;;;26.40;32.94
74659;BME280;63186;51.204;6.536;2023-06-14T06:39:20;101100.09;;;27.16;32.19
74659;BME280;63186;51.204;6.536;2023-06-14T06:41:45;101099.22;;;27.71;31.29
74659;BME280;63186;51.204;6.536;2023-06-14T06:44:10;101106.94;;;27.19;31.74
74659;BME280;63186;51.204;6.536;2023-06-14T06:46:36;101106.91;;;27.64;30.81
74659;BME280;63186;51.204;6.536;2023-06-14T06:49:05;101112.84;;;27.39;31.24
74659;BME280;63186;51.204;6.536;2023-06-14T06:51:31;101117.56;;;27.52;31.15
74659;BME280;63186;51.204;6.536;2023-06-14T06:53:56;101118.19;;;28.08;30.49
74659;BME280;63186;51.204;6.536;2023-06-14T06:56:21;101123.31;;;28.51;30.26
74659;BME280;63186;51.204;6.536;2023-06-14T06:58:49;101117.88;;;28.64;29.90
74659;BME280;63186;51.204;6.536;2023-06-14T07:01:14;101122.22;;;28.99;28.32
74659;BME280;63186;51.204;6.536;2023-06-14T07:03:39;101123.97;;;28.89;29.22
74659;BME280;63186;51.204;6.536;2023-06-14T07:06:05;101131.31;;;28.26;29.57
74659;BME280;63186;51.204;6.536;2023-06-14T07:08:30;101130.00;;;28.64;29.10
74659;BME280;63186;51.204;6.536;2023-06-14T07:10:56;101134.47;;;28.62;27.86
74659;BME280;63186;51.204;6.536;2023-06-14T07:13:21;101134.31;;;28.46;29.24
74659;BME280;63186;51.204;6.536;2023-06-14T07:15:46;101140.25;;;28.24;28.58
74659;BME280;63186;51.204;6.536;2023-06-14T07:18:12;101121.13;;;28.62;27.15
74659;BME280;63186;51.204;6.536;2023-06-14T07:20:38;101127.22;;;28.91;26.79
74659;BME280;63186;51.204;6.536;2023-06-14T07:23:03;101126.56;;;29.31;27.92
74659;BME280;63186;51.204;6.536;2023-06-14T07:25:28;101127.69;;;29.37;26.98
74659;BME280;63186;51.204;6.536;2023-06-14T07:27:54;101130.31;;;28.43;27.39
74659;BME280;63186;51.204;6.536;2023-06-14T07:30:19;101123.09;;;28.96;26.19
74659;BME280;63186;51.204;6.536;2023-06-14T07:32:45;101122.34;;;28.88;25.51
74659;BME280;63186;51.204;6.536;2023-06-14T07:35:10;101126.06;;;28.85;26.54
74659;BME280;63186;51.204;6.536;2023-06-14T07:37:35;101118.25;;;29.67;25.64
74659;BME280;63186;51.204;6.536;2023-06-14T07:40:01;101127.47;;;29.51;25.48
74659;BME280;63186;51.204;6.536;2023-06-14T07:42:32;101123.78;;;29.27;25.70
74659;BME280;63186;51.204;6.536;2023-06-14T07:44:57;101127.25;;;30.25;25.66
74659;BME280;63186;51.204;6.536;2023-06-14T07:47:22;101138.53;;;29.42;25.69
74659;BME280;63186;51.204;6.536;2023-06-14T07:49:47;101129.78;;;29.09;25.98
74659;BME280;63186;51.204;6.536;2023-06-14T07:52:13;101132.34;;;29.47;25.72
74659;BME280;63186;51.204;6.536;2023-06-14T07:54:38;101143.03;;;29.39;23.60
74659;BME280;63186;51.204;6.536;2023-06-14T07:57:03;101125.81;;;29.50;24.92
74659;BME280;63186;51.204;6.536;2023-06-14T07:59:29;101145.53;;;29.10;24.36
74659;BME280;63186;51.204;6.536;2023-06-14T08:01:54;101139.69;;;29.21;24.43
74659;BME280;63186;51.204;6.536;2023-06-14T08:04:20;101149.63;;;28.52;25.10
74659;BME280;63186;51.204;6.536;2023-06-14T08:06:45;101146.00;;;28.17;25.44
74659;BME280;63186;51.204;6.536;2023-06-14T08:09:11;101145.03;;;28.31;24.51
74659;BME280;63186;51.204;6.536;2023-06-14T08:11:37;101138.31;;;28.79;24.42
74659;BME280;63186;51.204;6.536;2023-06-14T08:14:02;101134.84;;;28.95;23.65
74659;BME280;63186;51.204;6.536;2023-06-14T08:16:28;101146.91;;;28.72;23.03
74659;BME280;63186;51.204;6.536;2023-06-14T08:18:55;101133.19;;;28.70;22.46
74659;BME280;63186;51.204;6.536;2023-06-14T08:21:21;101137.97;;;28.73;22.30
74659;BME280;63186;51.204;6.536;2023-06-14T08:23:46;101144.03;;;29.29;22.98
74659;BME280;63186;51.204;6.536;2023-06-14T08:26:11;101138.28;;;29.09;21.37
74659;BME280;63186;51.204;6.536;2023-06-14T08:28:36;101137.84;;;29.11;22.44
74659;BME280;63186;51.204;6.536;2023-06-14T08:31:02;101141.28;;;28.99;22.40
74659;BME280;63186;51.204;6.536;2023-06-14T08:33:27;101138.31;;;28.79;21.70
74659;BME280;63186;51.204;6.536;2023-06-14T08:35:53;101143.72;;;28.70;21.17
74659;BME280;63186;51.204;6.536;2023-06-14T08:38:18;101149.31;;;28.43;21.93
74659;BME280;63186;51.204;6.536;2023-06-14T08:40:45;101145.84;;;28.28;21.98
74659;BME280;63186;51.204;6.536;2023-06-14T08:43:12;101165.66;;;27.90;21.95
74659;BME280;63186;51.204;6.536;2023-06-14T08:45:38;101148.66;;;27.94;22.16
74659;BME280;63186;51.204;6.536;2023-06-14T08:48:04;101135.81;;;28.54;21.68
74659;BME280;63186;51.204;6.536;2023-06-14T08:50:32;101138.63;;;28.84;22.06
74659;BME280;63186;51.204;6.536;2023-06-14T08:53:00;101132.75;;;28.72;22.34
74659;BME280;63186;51.204;6.536;2023-06-14T08:55:27;101146.28;;;28.23;22.85
74659;BME280;63186;51.204;6.536;2023-06-14T08:57:57;101132.38;;;28.05;22.66
74659;BME280;63186;51.204;6.536;2023-06-14T09:00:23;101135.56;;;28.45;23.32
74659;BME280;63186;51.204;6.536;2023-06-14T09:02:49;101142.22;;;28.31;22.86
74659;BME280;63186;51.204;6.536;2023-06-14T09:05:20;101129.91;;;28.10;23.82
74659;BME280;63186;51.204;6.536;2023-06-14T09:07:46;101136.75;;;28.09;23.97
74659;BME280;63186;51.204;6.536;2023-06-14T09:10:15;101145.22;;;27.75;24.68
74659;BME280;63186;51.204;6.536;2023-06-14T09:12:40;101138.75;;;27.75;24.85
74659;BME280;63186;51.204;6.536;2023-06-14T09:15:07;101148.97;;;27.62;24.68
74659;BME280;63186;51.204;6.536;2023-06-14T09:17:34;101154.41;;;27.42;25.41
74659;BME280;63186;51.204;6.536;2023-06-14T09:20:04;101166.44;;;27.53;25.39
74659;BME280;63186;51.204;6.536;2023-06-14T09:22:32;101152.69;;;27.51;25.21
74659;BME280;63186;51.204;6.536;2023-06-14T09:24:57;101153.47;;;27.55;25.25
74659;BME280;63186;51.204;6.536;2023-06-14T09:27:22;101161.22;;;27.48;25.80
74659;BME280;63186;51.204;6.536;2023-06-14T09:29:48;101161.91;;;27.14;26.25
74659;BME280;63186;51.204;6.536;2023-06-14T09:32:13;101153.50;;;27.00;26.04
74659;BME280;63186;51.204;6.536;2023-06-14T09:34:39;101150.06;;;26.67;26.02
74659;BME280;63186;51.204;6.536;2023-06-14T09:37:05;101152.34;;;26.90;26.16
74659;BME280;63186;51.204;6.536;2023-06-14T09:39:31;101153.19;;;26.87;26.44
74659;BME280;63186;51.204;6.536;2023-06-14T09:41:56;101165.41;;;27.33;26.15
74659;BME280;63186;51.204;6.536;2023-06-14T09:44:22;101165.47;;;27.22;26.63
74659;BME280;63186;51.204;6.536;2023-06-14T09:46:53;101170.03;;;27.05;27.95
74659;BME280;63186;51.204;6.536;2023-06-14T09:49:20;101170.81;;;27.09;27.35
74659;BME280;63186;51.204;6.536;2023-06-14T09:51:50;101163.69;;;26.87;27.49
74659;BME280;63186;51.204;6.536;2023-06-14T09:54:16;101168.13;;;26.84;28.52
74659;BME280;63186;51.204;6.536;2023-06-14T09:56:45;101164.41;;;26.07;28.90
74659;BME280;63186;51.204;6.536;2023-06-14T09:59:12;101169.31;;;25.63;29.21
74659;BME280;63186;51.204;6.536;2023-06-14T10:01:42;101174.56;;;25.51;29.04
74659;BME280;63186;51.204;6.536;2023-06-14T10:04:09;101165.63;;;24.99;30.03
74659;BME280;63186;51.204;6.536;2023-06-14T10:06:37;101185.34;;;25.02;29.79
74659;BME280;63186;51.204;6.536;2023-06-14T10:09:07;101165.66;;;25.06;30.33
74659;BME280;63186;51.204;6.536;2023-06-14T10:11:33;101165.97;;;24.72;30.98
74659;BME280;63186;51.204;6.536;2023-06-14T10:14:01;101179.25;;;24.82;30.65
74659;BME280;63186;51.204;6.536;2023-06-14T10:19:24;101172.03;;;24.85;30.40
74659;BME280;63186;51.204;6.536;2023-06-14T10:22:04;101168.44;;;24.84;29.55
74659;BME280;63186;51.204;6.536;2023-06-14T10:24:33;101172.13;;;25.24;29.91
74659;BME280;63186;51.204;6.536;2023-06-14T10:26:59;101174.53;;;25.08;29.91
74659;BME280;63186;51.204;6.536;2023-06-14T10:29:28;101173.31;;;25.23;29.39
74659;BME280;63186;51.204;6.536;2023-06-14T10:31:58;101159.66;;;25.18;29.44
74659;BME280;63186;51.204;6.536;2023-06-14T10:34:28;101158.44;;;25.44;29.56
74659;BME280;63186;51.204;6.536;2023-06-14T10:37:13;101163.25;;;25.65;29.77
74659;BME280;63186;51.204;6.536;2023-06-14T10:39:43;101178.56;;;25.67;29.25
74659;BME280;63186;51.204;6.536;2023-06-14T10:42:11;101182.97;;;25.36;29.06
74659;BME280;63186;51.204;6.536;2023-06-14T10:44:53;101166.91;;;25.19;29.29
74659;BME280;63186;51.204;6.536;2023-06-14T10:49:50;101147.97;;;25.23;29.38
74659;BME280;63186;51.204;6.536;2023-06-14T10:52:21;101158.03;;;25.56;29.24
74659;BME280;63186;51.204;6.536;2023-06-14T10:55:09;101151.16;;;25.68;28.82
74659;BME280;63186;51.204;6.536;2023-06-14T10:57:37;101155.22;;;25.35;29.23
74659;BME280;63186;51.204;6.536;2023-06-14T11:00:04;101160.44;;;25.08;29.56
74659;BME280;63186;51.204;6.536;2023-06-14T11:02:51;101154.34;;;24.95;29.48
74659;BME280;63186;51.204;6.536;2023-06-14T11:05:25;101157.97;;;24.92;29.34
74659;BME280;63186;51.204;6.536;2023-06-14T11:10:43;101151.03;;;24.57;29.88
74659;BME280;63186;51.204;6.536;2023-06-14T11:13:11;101158.75;;;24.82;29.76
74659;BME280;63186;51.204;6.536;2023-06-14T11:15:37;101148.78;;;25.13;29.36
74659;BME280;63186;51.204;6.536;2023-06-14T11:18:08;101156.00;;;25.35;29.35
74659;BME280;63186;51.204;6.536;2023-06-14T11:20:36;101147.56;;;25.17;29.46
74659;BME280;63186;51.204;6.536;2023-06-14T11:23:02;101151.19;;;25.36;29.64
74659;BME280;63186;51.204;6.536;2023-06-14T11:25:28;101144.75;;;25.32;29.97
74659;BME280;63186;51.204;6.536;2023-06-14T11:27:54;101141.94;;;25.17;29.73
74659;BME280;63186;51.204;6.536;2023-06-14T11:30:19;101142.69;;;25.04;29.42
74659;BME280;63186;51.204;6.536;2023-06-14T11:32:49;101142.22;;;24.59;29.91
74659;BME280;63186;51.204;6.536;2023-06-14T11:35:15;101144.59;;;24.46;30.22
74659;BME280;63186;51.204;6.536;2023-06-14T11:37:41;101148.25;;;24.61;29.22
74659;BME280;63186;51.204;6.536;2023-06-14T11:40:07;101158.31;;;24.66;29.30
74659;BME280;63186;51.204;6.536;2023-06-14T11:42:35;101142.56;;;24.50;29.87
74659;BME280;63186;51.204;6.536;2023-06-14T11:45:01;101145.44;;;24.61;30.14
74659;BME280;63186;51.204;6.536;2023-06-14T11:47:36;101123.41;;;25.06;29.87
74659;BME280;63186;51.204;6.536;2023-06-14T11:50:03;101137.09;;;25.07;30.31
74659;BME280;63186;51.204;6.536;2023-06-14T11:52:28;101134.25;;;24.93;29.57
74659;BME280;63186;51.204;6.536;2023-06-14T11:54:54;101125.78;;;24.86;29.89
74659;BME280;63186;51.204;6.536;2023-06-14T11:57:19;101140.63;;;24.76;29.87
74659;BME280;63186;51.204;6.536;2023-06-14T11:59:46;101133.84;;;24.95;29.93
74659;BME280;63186;51.204;6.536;2023-06-14T12:02:18;101131.41;;;24.72;29.84
74659;BME280;63186;51.204;6.536;2023-06-14T12:04:46;101127.75;;;24.68;29.89
74659;BME280;63186;51.204;6.536;2023-06-14T12:07:15;101140.22;;;24.77;30.64
74659;BME280;63186;51.204;6.536;2023-06-14T12:09:43;101130.19;;;24.80;29.68
74659;BME280;63186;51.204;6.536;2023-06-14T12:12:28;101127.38;;;24.87;30.88
74659;BME280;63186;51.204;6.536;2023-06-14T12:14:55;101125.41;;;25.16;29.96
74659;BME280;63186;51.204;6.536;2023-06-14T12:17:21;101128.25;;;25.09;30.25
74659;BME280;63186;51.204;6.536;2023-06-14T12:19:48;101128.19;;;24.87;30.51
74659;BME280;63186;51.204;6.536;2023-06-14T12:22:15;101129.38;;;24.90;30.55
74659;BME280;63186;51.204;6.536;2023-06-14T12:24:43;101137.03;;;24.86;30.56
74659;BME280;63186;51.204;6.536;2023-06-14T12:27:09;101133.78;;;24.77;30.64
74659;BME280;63186;51.204;6.536;2023-06-14T12:29:38;101135.91;;;25.19;30.53
74659;BME280;63186;51.204;6.536;2023-06-14T12:32:03;101127.44;;;25.12;30.38
74659;BME280;63186;51.204;6.536;2023-06-14T12:34:28;101126.63;;;25.15;30.35
74659;BME280;63186;51.204;6.536;2023-06-14T12:36:54;101124.63;;;25.37;30.57
74659;BME280;63186;51.204;6.536;2023-06-14T12:39:20;101133.06;;;25.23;31.00
74659;BME280;63186;51.204;6.536;2023-06-14T12:41:46;101139.44;;;24.84;30.90
74659;BME280;63186;51.204;6.536;2023-06-14T12:44:11;101127.38;;;24.83;31.44
74659;BME280;63186;51.204;6.536;2023-06-14T12:46:37;101126.63;;;25.08;30.72
74659;BME280;63186;51.204;6.536;2023-06-14T12:49:05;101124.16;;;24.96;30.90
74659;BME280;63186;51.204;6.536;2023-06-14T12:51:30;101125.00;;;25.00;30.61
74659;BME280;63186;51.204;6.536;2023-06-14T12:53:55;101113.72;;;24.96;31.54
74659;BME280;63186;51.204;6.536;2023-06-14T12:56:21;101123.38;;;25.02;31.16